createdAt,value
2022-09-23T00:00:50.070Z,85.14
2022-09-23T00:02:49.124Z,84.85
2022-09-23T00:04:47.905Z,84.84
2022-09-23T00:06:45.949Z,84.82
2022-09-23T00:08:44.248Z,84.88
2022-09-23T00:10:42.297Z,85.10
2022-09-23T00:12:40.496Z,85.10
2022-09-23T00:14:39.994Z,85.25
2022-09-23T00:16:40.168Z,85.41
2022-09-23T00:18:38.850Z,85.03
2022-09-23T00:20:37.371Z,84.62
2022-09-23T00:22:35.587Z,84.63
2022-09-23T00:24:33.820Z,84.59
2022-09-23T00:26:31.965Z,84.79
2022-09-23T00:28:30.358Z,84.92
2022-09-23T00:30:28.667Z,85.08
2022-09-23T00:32:28.369Z,85.62
2022-09-23T00:34:26.441Z,85.68
2022-09-23T00:36:25.558Z,85.75
2022-09-23T00:38:23.657Z,86.18
2022-09-23T00:40:21.786Z,85.65
2022-09-23T00:42:22.754Z,85.52
2022-09-23T00:44:43.974Z,84.99
2022-09-23T00:46:44.524Z,84.71
2022-09-23T00:48:45.101Z,84.38
2022-09-23T00:50:46.926Z,84.28
2022-09-23T00:52:45.694Z,84.50
2022-09-23T00:54:46.708Z,84.71
2022-09-23T00:56:45.359Z,85.13
2022-09-23T00:58:45.808Z,85.57
2022-09-23T01:00:44.047Z,85.57
2022-09-23T01:02:42.204Z,85.79
2022-09-23T01:04:42.412Z,85.65
2022-09-23T01:06:40.969Z,85.57
2022-09-23T01:08:39.852Z,85.32
2022-09-23T01:10:48.760Z,85.21
2022-09-23T01:13:00.618Z,85.03
2022-09-23T01:15:10.561Z,85.05
2022-09-23T01:17:17.396Z,84.97
2022-09-23T01:19:35.805Z,85.28
2022-09-23T01:21:48.419Z,85.86
2022-09-23T01:24:34.787Z,85.68
2022-09-23T01:26:54.333Z,86.21
2022-09-23T01:29:15.163Z,86.61
2022-09-23T01:31:22.486Z,86.54
2022-09-23T01:33:25.847Z,86.26
2022-09-23T01:35:30.452Z,86.38
2022-09-23T01:37:35.835Z,86.71
2022-09-23T01:39:38.768Z,86.91
2022-09-23T01:41:51.896Z,87.08
2022-09-23T01:43:59.292Z,87.71
2022-09-23T01:46:00.527Z,87.34
2022-09-23T01:48:10.420Z,86.94
2022-09-23T01:50:27.024Z,86.47
2022-09-23T01:52:29.525Z,86.70
2022-09-23T01:54:33.471Z,86.36
2022-09-23T01:56:37.726Z,86.58
2022-09-23T01:58:44.234Z,86.42
2022-09-23T02:00:58.537Z,86.01
2022-09-23T02:03:04.924Z,86.79
2022-09-23T02:05:09.790Z,87.09
2022-09-23T02:07:15.658Z,87.31
2022-09-23T02:09:17.228Z,87.73
2022-09-23T02:11:16.656Z,87.87
2022-09-23T02:13:19.394Z,87.73
2022-09-23T02:15:20.773Z,87.95
2022-09-23T02:17:26.187Z,88.08
2022-09-23T02:19:31.658Z,88.05
2022-09-23T02:21:35.783Z,88.41
2022-09-23T02:23:43.035Z,88.79
2022-09-23T02:25:49.749Z,89.21
2022-09-23T02:27:57.281Z,89.67
2022-09-23T02:30:02.765Z,89.84
2022-09-23T02:32:15.960Z,89.99
2022-09-23T02:34:23.517Z,89.71
2022-09-23T02:36:31.517Z,88.71
2022-09-23T02:38:37.572Z,88.21
2022-09-23T02:40:39.622Z,87.99
2022-09-23T02:42:46.483Z,88.10
2022-09-23T02:44:44.817Z,87.91
2022-09-23T02:46:44.172Z,88.00
2022-09-23T02:48:46.489Z,88.27
2022-09-23T02:50:44.769Z,88.58
2022-09-23T02:52:44.344Z,89.40
2022-09-23T02:54:42.570Z,89.83
2022-09-23T02:56:41.880Z,89.75
2022-09-23T02:58:40.122Z,90.14
2022-09-23T03:00:50.158Z,90.07
2022-09-23T03:03:06.868Z,90.13
2022-09-23T03:05:12.727Z,90.12
2022-09-23T03:07:17.903Z,90.42
2022-09-23T03:09:22.687Z,90.28
2022-09-23T03:11:21.749Z,90.38
2022-09-23T03:13:30.031Z,90.20
2022-09-23T03:15:36.221Z,90.75
2022-09-23T03:17:39.401Z,91.34
2022-09-23T03:19:43.935Z,91.61
2022-09-23T03:21:46.538Z,91.52
2022-09-23T03:23:46.406Z,91.43
2022-09-23T03:25:50.141Z,91.48
2022-09-23T03:27:48.416Z,91.40
2022-09-23T03:29:50.089Z,91.51
2022-09-23T03:31:48.734Z,91.16
2022-09-23T03:33:51.433Z,91.81
2022-09-23T03:36:11.642Z,91.49
2022-09-23T03:38:16.310Z,91.67
2022-09-23T03:40:19.466Z,92.00
2022-09-23T03:42:22.499Z,92.14
2022-09-23T03:44:21.899Z,92.57
2022-09-23T03:46:20.075Z,93.05
2022-09-23T03:48:18.427Z,93.07
2022-09-23T03:50:17.822Z,93.34
2022-09-23T03:52:16.242Z,93.48
2022-09-23T03:54:14.317Z,93.70
2022-09-23T03:56:12.585Z,94.36
2022-09-23T03:58:12.486Z,93.60
2022-09-23T04:00:12.183Z,93.99
2022-09-23T04:02:12.044Z,93.71
2022-09-23T04:04:10.532Z,93.35
2022-09-23T04:06:09.133Z,93.55
2022-09-23T04:08:07.631Z,93.58
2022-09-23T04:10:07.174Z,94.16
2022-09-23T04:12:06.207Z,94.27
2022-09-23T04:14:06.228Z,94.42
2022-09-23T04:16:04.424Z,95.00
2022-09-23T04:18:02.640Z,94.43
2022-09-23T04:20:00.944Z,94.06
2022-09-23T04:21:59.027Z,93.76
2022-09-23T04:23:57.140Z,94.18
2022-09-23T04:25:55.606Z,94.08
2022-09-23T04:27:53.759Z,93.98
2022-09-23T04:29:53.334Z,94.14
2022-09-23T04:31:52.266Z,94.60
2022-09-23T04:33:50.494Z,94.30
2022-09-23T04:35:51.288Z,94.33
2022-09-23T04:37:49.582Z,93.83
2022-09-23T04:39:47.880Z,93.34
2022-09-23T04:41:46.654Z,92.93
2022-09-23T04:43:45.141Z,91.80
2022-09-23T04:45:45.315Z,90.91
2022-09-23T04:47:43.493Z,90.15
2022-09-23T04:49:42.331Z,89.72
2022-09-23T04:51:43.339Z,89.02
2022-09-23T04:53:43.227Z,89.07
2022-09-23T04:55:44.566Z,88.80
2022-09-23T04:57:42.679Z,88.35
2022-09-23T04:59:41.418Z,88.04
2022-09-23T05:01:41.672Z,87.56
2022-09-23T05:03:40.511Z,87.39
2022-09-23T05:05:38.610Z,86.77
2022-09-23T05:07:36.972Z,86.49
2022-09-23T05:09:35.403Z,85.36
2022-09-23T05:11:33.863Z,84.59
2022-09-23T05:13:32.729Z,84.20
2022-09-23T05:15:30.781Z,83.97
2022-09-23T05:17:31.299Z,82.71
2022-09-23T05:19:29.666Z,81.87
2022-09-23T05:21:29.116Z,81.71
2022-09-23T05:23:27.763Z,81.49
2022-09-23T05:25:26.179Z,81.47
2022-09-23T05:27:24.249Z,81.29
2022-09-23T05:29:22.396Z,81.45
2022-09-23T05:31:22.593Z,81.44
2022-09-23T05:33:22.403Z,81.24
2022-09-23T05:35:20.677Z,81.04
2022-09-23T05:37:18.714Z,80.60
2022-09-23T05:39:16.985Z,80.02
2022-09-23T05:41:15.440Z,79.08
2022-09-23T05:43:14.150Z,78.63
2022-09-23T05:45:12.577Z,78.21
2022-09-23T05:47:10.770Z,77.95
2022-09-23T05:49:10.558Z,77.70
2022-09-23T05:51:11.338Z,77.54
2022-09-23T05:53:09.485Z,77.95
2022-09-23T05:55:09.090Z,77.47
2022-09-23T05:57:07.612Z,77.08
2022-09-23T05:59:06.907Z,76.54
2022-09-23T06:01:11.364Z,75.62
2022-09-23T06:03:13.664Z,74.20
2022-09-23T06:05:13.913Z,73.10
2022-09-23T06:07:12.087Z,72.75
2022-09-23T06:09:14.536Z,73.09
2022-09-23T06:11:13.848Z,73.45
2022-09-23T06:13:12.717Z,73.79
2022-09-23T06:15:12.233Z,72.28
2022-09-23T06:17:10.561Z,71.02
2022-09-23T06:19:09.980Z,70.95
2022-09-23T06:21:11.242Z,71.22
2022-09-23T06:23:11.578Z,70.69
2022-09-23T06:25:11.021Z,69.95
2022-09-23T06:27:11.093Z,67.66
2022-09-23T06:29:11.655Z,66.02
2022-09-23T06:31:14.027Z,64.79
2022-09-23T06:33:12.457Z,64.14
2022-09-23T06:35:22.559Z,65.79
2022-09-23T06:37:24.334Z,67.56
2022-09-23T06:39:27.883Z,67.38
2022-09-23T06:41:26.335Z,66.48
2022-09-23T06:43:29.205Z,66.38
2022-09-23T06:45:27.940Z,65.68
2022-09-23T06:47:27.772Z,65.96
2022-09-23T06:49:26.638Z,66.48
2022-09-23T06:51:24.838Z,66.77
2022-09-23T06:53:27.176Z,67.69
2022-09-23T06:55:27.893Z,67.98
2022-09-23T06:57:26.138Z,67.23
2022-09-23T06:59:25.144Z,66.43
2022-09-23T07:01:23.363Z,65.78
2022-09-23T07:03:22.346Z,66.45
2022-09-23T07:05:22.340Z,65.16
2022-09-23T07:07:20.892Z,63.85
2022-09-23T07:09:20.727Z,62.91
2022-09-23T07:11:22.498Z,62.87
2022-09-23T07:13:21.150Z,62.46
2022-09-23T07:15:19.364Z,62.60
2022-09-23T07:17:17.577Z,62.13
2022-09-23T07:19:16.094Z,62.07
2022-09-23T07:21:17.949Z,62.32
2022-09-23T07:23:17.915Z,63.15
2022-09-23T07:25:17.550Z,63.63
2022-09-23T07:27:16.641Z,63.06
2022-09-23T07:29:15.856Z,61.11
2022-09-23T07:31:20.486Z,60.73
2022-09-23T07:33:30.754Z,58.96
2022-09-23T07:35:30.311Z,58.21
2022-09-23T07:37:28.697Z,58.07
2022-09-23T07:39:27.131Z,56.97
2022-09-23T07:41:28.947Z,56.63
2022-09-23T07:43:31.982Z,56.86
2022-09-23T07:45:32.038Z,58.05
2022-09-23T07:47:31.577Z,58.56
2022-09-23T07:49:29.925Z,59.12
2022-09-23T07:51:35.437Z,59.70
2022-09-23T07:53:34.615Z,60.13
2022-09-23T07:55:33.076Z,60.61
2022-09-23T07:57:33.185Z,59.25
2022-09-23T07:59:32.054Z,59.20
2022-09-23T08:01:33.102Z,58.72
2022-09-23T08:03:31.250Z,57.50
2022-09-23T08:05:29.645Z,56.73
2022-09-23T08:07:27.704Z,56.66
2022-09-23T08:09:29.239Z,57.50
2022-09-23T08:11:28.550Z,57.25
2022-09-23T08:13:28.100Z,56.01
2022-09-23T08:15:27.248Z,54.81
2022-09-23T08:17:25.525Z,53.47
2022-09-23T08:19:23.838Z,52.31
2022-09-23T08:21:24.610Z,51.52
2022-09-23T08:23:23.296Z,51.47
2022-09-23T08:25:22.732Z,52.29
2022-09-23T08:27:21.198Z,53.56
2022-09-23T08:29:23.075Z,54.98
2022-09-23T08:31:21.723Z,53.93
2022-09-23T08:33:23.391Z,51.45
2022-09-23T08:35:22.154Z,50.80
2022-09-23T08:37:20.195Z,50.82
2022-09-23T08:39:20.359Z,51.56
2022-09-23T08:41:27.328Z,50.00
2022-09-23T08:43:29.577Z,47.76
2022-09-23T08:45:29.763Z,45.75
2022-09-23T08:47:32.357Z,45.80
2022-09-23T08:49:36.665Z,45.14
2022-09-23T08:51:41.193Z,44.81
2022-09-23T08:53:40.442Z,44.14
2022-09-23T08:55:43.611Z,42.69
2022-09-23T08:58:23.531Z,41.50
2022-09-23T09:00:24.691Z,38.98
2022-09-23T09:02:26.358Z,39.00
2022-09-23T09:04:28.477Z,40.48
2022-09-23T09:06:32.131Z,41.12
2022-09-23T09:08:34.754Z,38.72
2022-09-23T09:10:45.761Z,35.26
2022-09-23T09:12:46.624Z,34.96
2022-09-23T09:14:53.293Z,36.14
2022-09-23T09:17:02.822Z,37.16
2022-09-23T09:19:03.281Z,40.41
2022-09-23T09:21:12.617Z,41.25
2022-09-23T09:23:22.634Z,39.92
2022-09-23T09:25:28.780Z,39.09
2022-09-23T09:27:30.216Z,33.33
2022-09-23T09:29:35.685Z,32.01
2022-09-23T09:31:38.995Z,31.96
2022-09-23T09:33:42.198Z,30.92
2022-09-23T09:35:50.408Z,29.40
2022-09-23T09:37:49.581Z,30.24
2022-09-23T09:39:47.814Z,30.23
2022-09-23T09:41:49.926Z,28.40
2022-09-23T09:43:56.370Z,28.40
2022-09-23T09:46:08.409Z,30.07
2022-09-23T09:48:12.156Z,33.20
2022-09-23T09:50:21.672Z,33.46
2022-09-23T09:52:26.902Z,30.19
2022-09-23T09:54:27.178Z,30.96
2022-09-23T09:56:32.287Z,30.40
2022-09-23T09:58:41.763Z,28.28
2022-09-23T10:00:44.073Z,28.04
2022-09-23T10:02:42.229Z,27.12
2022-09-23T10:04:43.123Z,26.73
2022-09-23T10:06:41.903Z,26.50
2022-09-23T10:08:41.738Z,29.43
2022-09-23T10:10:41.771Z,30.01
2022-09-23T10:12:48.729Z,30.48
2022-09-23T10:14:50.721Z,29.01
2022-09-23T10:17:03.693Z,27.59
2022-09-23T10:19:04.833Z,27.98
2022-09-23T10:21:09.423Z,26.01
2022-09-23T10:23:10.217Z,25.23
2022-09-23T10:25:16.972Z,25.06
2022-09-23T10:27:15.296Z,25.66
2022-09-23T10:29:26.216Z,26.50
2022-09-23T10:31:27.283Z,26.42
2022-09-23T10:33:28.973Z,26.25
2022-09-23T10:35:29.101Z,26.48
2022-09-23T10:37:32.818Z,27.31
2022-09-23T10:39:48.283Z,28.34
2022-09-23T10:42:17.044Z,29.28
2022-09-23T10:44:51.477Z,32.52
2022-09-23T10:47:01.154Z,33.43
2022-09-23T10:49:20.874Z,34.60
2022-09-23T10:51:26.539Z,34.34
2022-09-23T10:53:35.185Z,35.50
2022-09-23T10:55:46.028Z,36.81
2022-09-23T10:58:05.904Z,36.66
2022-09-23T11:00:11.500Z,36.32
2022-09-23T11:02:26.376Z,36.43
2022-09-23T11:04:55.449Z,36.16
2022-09-23T11:07:09.028Z,36.13
2022-09-23T11:09:25.206Z,35.54
2022-09-23T11:11:37.939Z,35.98
2022-09-23T11:13:54.518Z,35.85
2022-09-23T11:16:04.078Z,35.98
2022-09-23T11:18:29.271Z,37.19
2022-09-23T11:20:46.012Z,35.82
2022-09-23T11:22:57.587Z,36.87
2022-09-23T11:25:09.033Z,36.90
2022-09-23T11:27:20.376Z,37.04
2022-09-23T11:29:34.482Z,36.33
2022-09-23T11:31:39.021Z,36.19
2022-09-23T11:33:50.884Z,36.41
2022-09-23T11:35:52.724Z,36.38
2022-09-23T11:37:56.972Z,36.69
2022-09-23T11:40:02.333Z,36.61
2022-09-23T11:42:02.760Z,37.38
2022-09-23T11:44:08.499Z,37.78
2022-09-23T11:46:16.059Z,37.42
2022-09-23T11:48:19.769Z,38.09
2022-09-23T11:50:26.020Z,37.29
2022-09-23T11:52:29.557Z,36.06
2022-09-23T11:54:34.871Z,35.86
2022-09-23T11:56:40.419Z,36.14
2022-09-23T11:58:50.426Z,35.88
2022-09-23T12:01:01.657Z,35.44
2022-09-23T12:03:32.784Z,35.74
2022-09-23T12:05:40.750Z,35.38
2022-09-23T12:08:03.794Z,39.58
2022-09-23T12:10:07.709Z,43.15
2022-09-23T12:12:26.879Z,45.54
2022-09-23T12:14:37.666Z,46.29
2022-09-23T12:17:08.507Z,47.97
2022-09-23T12:19:28.088Z,48.44
2022-09-23T12:21:51.730Z,48.20
2022-09-23T12:24:19.561Z,47.46
2022-09-23T12:26:28.190Z,46.71
2022-09-23T12:28:37.460Z,46.63
2022-09-23T12:30:40.327Z,46.63
2022-09-23T12:32:40.972Z,46.23
2022-09-23T12:34:49.184Z,45.43
2022-09-23T12:36:47.872Z,45.99
2022-09-23T12:38:55.320Z,46.01
2022-09-23T12:40:55.995Z,46.29
2022-09-23T12:42:54.204Z,45.52
2022-09-23T12:45:20.403Z,46.63
2022-09-23T12:47:41.373Z,46.20
2022-09-23T12:49:41.442Z,45.67
2022-09-23T12:52:26.238Z,46.62
2022-09-23T12:54:26.152Z,46.32
2022-09-23T12:56:27.610Z,46.91
2022-09-23T12:58:58.990Z,48.10
2022-09-23T13:01:24.625Z,48.89
2022-09-23T13:03:50.623Z,49.20
2022-09-23T13:06:11.055Z,48.27
2022-09-23T13:08:19.632Z,47.42
2022-09-23T13:10:25.804Z,47.23
2022-09-23T13:12:29.700Z,47.60
2022-09-23T13:14:39.986Z,47.18
2022-09-23T13:16:43.802Z,47.36
2022-09-23T13:18:56.546Z,47.13
2022-09-23T13:20:56.997Z,47.73
2022-09-23T13:23:07.279Z,46.61
2022-09-23T13:25:20.637Z,46.62
2022-09-23T13:27:31.048Z,47.52
2022-09-23T13:29:37.543Z,47.66
2022-09-23T13:31:35.936Z,46.87
2022-09-23T13:33:46.377Z,47.28
2022-09-23T13:35:51.772Z,47.27
2022-09-23T13:37:53.126Z,46.97
2022-09-23T13:40:07.576Z,47.00
2022-09-23T13:42:17.122Z,47.74
2022-09-23T13:44:21.782Z,47.56
2022-09-23T13:46:31.073Z,47.45
2022-09-23T13:48:33.018Z,47.24
2022-09-23T13:50:34.852Z,46.84
2022-09-23T13:52:37.140Z,47.39
2022-09-23T13:54:56.371Z,47.27
2022-09-23T13:56:54.495Z,47.43
2022-09-23T13:58:52.791Z,45.97
2022-09-23T14:00:52.062Z,45.03
2022-09-23T14:02:50.277Z,44.65
2022-09-23T14:04:48.564Z,44.93
2022-09-23T14:06:47.054Z,44.84
2022-09-23T14:08:47.344Z,45.28
2022-09-23T14:13:26.229Z,44.20
2022-09-23T14:15:24.638Z,43.92
2022-09-23T14:17:24.271Z,44.70
2022-09-23T14:19:24.269Z,44.25
2022-09-23T14:21:35.147Z,44.75
2022-09-23T14:23:36.553Z,46.13
2022-09-23T14:25:38.927Z,46.04
2022-09-23T14:27:39.760Z,46.32
2022-09-23T14:29:40.988Z,46.37
2022-09-23T14:32:03.573Z,46.57
2022-09-23T14:34:27.670Z,46.52
2022-09-23T14:36:43.649Z,47.07
2022-09-23T14:38:53.905Z,46.47
2022-09-23T14:40:54.605Z,46.12
2022-09-23T14:43:00.674Z,46.56
2022-09-23T14:44:58.886Z,46.93
2022-09-23T14:47:00.092Z,45.95
2022-09-23T14:49:06.026Z,45.49
2022-09-23T14:51:14.618Z,45.37
2022-09-23T14:53:46.427Z,44.27
2022-09-23T14:55:45.412Z,44.01
2022-09-23T14:57:44.680Z,43.36
2022-09-23T14:59:50.671Z,43.62
2022-09-23T15:01:48.744Z,44.19
2022-09-23T15:03:48.595Z,43.70
2022-09-23T15:05:48.056Z,44.03
2022-09-23T15:07:51.103Z,45.54
2022-09-23T15:09:49.409Z,46.42
2022-09-23T15:11:47.881Z,47.00
2022-09-23T15:13:51.287Z,47.08
2022-09-23T15:15:53.727Z,47.74
2022-09-23T15:17:52.096Z,48.18
2022-09-23T15:19:58.744Z,48.58
2022-09-23T15:21:56.945Z,48.32
2022-09-23T15:23:57.536Z,48.43
2022-09-23T15:25:55.779Z,48.61
2022-09-23T15:28:02.428Z,48.92
2022-09-23T15:30:18.940Z,49.41
2022-09-23T15:32:19.052Z,49.52
2022-09-23T15:34:19.113Z,49.48
2022-09-23T15:36:19.379Z,49.77
2022-09-23T15:38:18.672Z,50.66
2022-09-23T15:40:21.108Z,51.14
2022-09-23T15:42:19.594Z,51.15
2022-09-23T15:44:21.530Z,51.22
2022-09-23T15:46:23.330Z,51.58
2022-09-23T15:48:24.942Z,51.63
2022-09-23T15:50:41.579Z,51.93
2022-09-23T15:52:48.405Z,52.66
2022-09-23T15:54:49.971Z,53.73
2022-09-23T15:56:48.568Z,52.23
2022-09-23T15:58:47.205Z,51.67
2022-09-23T16:00:46.067Z,52.36
2022-09-23T16:02:52.633Z,51.03
2022-09-23T16:04:55.668Z,51.42
2022-09-23T16:07:01.689Z,52.10
2022-09-23T16:09:03.511Z,51.74
2022-09-23T16:11:02.511Z,52.18
2022-09-23T16:13:04.049Z,52.64
2022-09-23T16:15:03.585Z,52.57
2022-09-23T16:17:03.539Z,53.54
2022-09-23T16:19:09.073Z,53.25
2022-09-23T16:21:13.711Z,53.28
2022-09-23T16:23:35.313Z,53.79
2022-09-23T16:25:37.339Z,54.33
2022-09-23T16:27:37.410Z,54.59
2022-09-23T16:29:35.844Z,54.93
2022-09-23T16:31:34.491Z,55.01
2022-09-23T16:33:32.722Z,55.46
2022-09-23T16:35:34.658Z,55.75
2022-09-23T16:37:35.179Z,56.09
2022-09-23T16:39:33.540Z,56.58
2022-09-23T16:41:32.594Z,56.85
2022-09-23T16:43:39.567Z,57.17
2022-09-23T16:45:38.265Z,56.79
2022-09-23T16:47:44.430Z,57.25
2022-09-23T16:49:43.564Z,57.62
2022-09-23T16:51:42.046Z,58.21
2022-09-23T16:53:42.659Z,58.39
2022-09-23T16:55:41.261Z,59.00
2022-09-23T16:57:41.099Z,58.76
2022-09-23T16:59:56.637Z,58.92
2022-09-23T17:02:12.431Z,58.75
2022-09-23T17:04:11.472Z,59.27
2022-09-23T17:06:12.269Z,59.67
2022-09-23T17:08:13.244Z,59.97
2022-09-23T17:10:13.133Z,60.65
2022-09-23T17:12:17.954Z,60.77
2022-09-23T17:14:16.309Z,60.55
2022-09-23T17:16:24.971Z,61.05
2022-09-23T17:18:23.305Z,61.76
2022-09-23T17:20:22.284Z,61.62
2022-09-23T17:22:20.741Z,61.57
2022-09-23T17:24:19.127Z,61.46
2022-09-23T17:26:18.742Z,61.83
2022-09-23T17:28:17.112Z,61.70
2022-09-23T17:30:15.784Z,62.09
2022-09-23T17:32:14.179Z,62.05
2022-09-23T17:34:12.933Z,62.52
2022-09-23T17:36:13.388Z,62.71
2022-09-23T17:38:11.990Z,63.00
2022-09-23T17:40:13.114Z,63.48
2022-09-23T17:42:13.270Z,63.69
2022-09-23T17:44:11.621Z,63.28
2022-09-23T17:46:12.920Z,63.80
2022-09-23T17:48:11.054Z,63.52
2022-09-23T17:50:09.946Z,64.27
2022-09-23T17:52:08.380Z,64.27
2022-09-23T17:54:06.689Z,63.97
2022-09-23T17:56:06.811Z,64.73
2022-09-23T17:58:06.669Z,65.07
2022-09-23T18:00:05.810Z,65.91
2022-09-23T18:02:15.426Z,65.35
2022-09-23T18:04:14.243Z,65.90
2022-09-23T18:06:14.145Z,66.44
2022-09-23T18:08:12.434Z,66.81
2022-09-23T18:10:11.000Z,66.73
2022-09-23T18:12:09.352Z,66.85
2022-09-23T18:14:15.425Z,66.92
2022-09-23T18:16:13.704Z,67.17
2022-09-23T18:18:11.944Z,67.17
2022-09-23T18:20:11.374Z,66.98
2022-09-23T18:22:09.622Z,67.30
2022-09-23T18:26:28.196Z,67.93
2022-09-23T18:28:26.334Z,67.91
2022-09-23T18:30:25.853Z,68.21
2022-09-23T18:32:24.182Z,68.31
2022-09-23T18:34:22.435Z,68.77
2022-09-23T18:36:21.238Z,68.55
2022-09-23T18:38:20.597Z,69.10
2022-09-23T18:40:19.273Z,68.77
2022-09-23T18:42:17.560Z,68.34
2022-09-23T18:44:16.973Z,68.54
2022-09-23T18:46:18.387Z,69.00
2022-09-23T18:48:34.144Z,69.54
2022-09-23T18:50:43.107Z,70.20
2022-09-23T18:52:41.259Z,70.66
2022-09-23T18:54:39.555Z,70.55
2022-09-23T18:56:42.116Z,70.67
2022-09-23T18:58:40.359Z,70.86
2022-09-23T19:00:38.689Z,71.06
2022-09-23T19:02:38.280Z,71.38
2022-09-23T19:04:36.442Z,71.57
2022-09-23T19:06:35.821Z,71.29
2022-09-23T19:08:34.463Z,71.27
2022-09-23T19:10:32.501Z,71.16
2022-09-23T19:12:31.093Z,71.28
2022-09-23T19:14:29.256Z,70.96
2022-09-23T19:16:27.960Z,71.35
2022-09-23T19:18:29.173Z,70.92
2022-09-23T19:20:27.251Z,70.71
2022-09-23T19:22:25.745Z,70.56
2022-09-23T19:24:24.034Z,70.75
2022-09-23T19:26:24.822Z,70.65
2022-09-23T19:28:25.035Z,70.73
2022-09-23T19:30:23.262Z,70.97
2022-09-23T19:32:24.450Z,71.58
2022-09-23T19:34:26.013Z,71.88
2022-09-23T19:36:26.899Z,72.67
2022-09-23T19:38:25.128Z,73.15
2022-09-23T19:40:23.239Z,73.59
2022-09-23T19:42:22.621Z,74.07
2022-09-23T19:44:20.977Z,74.02
2022-09-23T19:46:19.494Z,74.26
2022-09-23T19:48:17.778Z,74.62
2022-09-23T19:50:17.509Z,74.88
2022-09-23T19:52:15.649Z,74.64
2022-09-23T19:54:20.886Z,74.90
2022-09-23T19:56:19.930Z,73.88
2022-09-23T19:58:18.315Z,74.09
2022-09-23T20:00:17.055Z,74.16
2022-09-23T20:02:16.646Z,74.09
2022-09-23T20:04:15.789Z,74.05
2022-09-23T20:06:15.980Z,74.02
2022-09-23T20:08:14.302Z,73.81
2022-09-23T20:10:13.321Z,73.68
2022-09-23T20:12:12.456Z,74.02
2022-09-23T20:14:12.968Z,73.73
2022-09-23T20:16:12.443Z,74.29
2022-09-23T20:18:11.303Z,74.39
2022-09-23T20:20:11.304Z,74.41
2022-09-23T20:22:28.525Z,74.38
2022-09-23T20:24:30.734Z,74.54
2022-09-23T20:26:46.371Z,74.96
2022-09-23T20:28:44.585Z,75.07
2022-09-23T20:30:43.960Z,74.56
2022-09-23T20:32:44.779Z,74.89
2022-09-23T20:34:46.700Z,74.79
2022-09-23T20:36:45.007Z,75.37
2022-09-23T20:38:44.738Z,75.67
2022-09-23T20:40:55.874Z,75.74
2022-09-23T20:42:54.658Z,76.29
2022-09-23T20:44:52.978Z,76.58
2022-09-23T20:46:51.876Z,76.58
2022-09-23T20:48:50.986Z,76.53
2022-09-23T20:50:51.290Z,76.56
2022-09-23T20:52:49.531Z,76.55
2022-09-23T20:54:50.390Z,77.12
2022-09-23T20:56:49.223Z,76.61
2022-09-23T20:58:48.749Z,76.45
2022-09-23T21:00:47.406Z,76.91
2022-09-23T21:02:46.270Z,76.79
2022-09-23T21:04:44.689Z,76.94
2022-09-23T21:06:43.037Z,77.00
2022-09-23T21:08:42.519Z,77.08
2022-09-23T21:10:42.271Z,76.95
2022-09-23T21:12:40.515Z,77.30
2022-09-23T21:14:39.546Z,77.57
2022-09-23T21:16:37.787Z,77.61
2022-09-23T21:18:37.191Z,78.39
2022-09-23T21:20:35.534Z,78.13
2022-09-23T21:22:35.770Z,78.22
2022-09-23T21:25:03.841Z,77.95
2022-09-23T21:26:53.596Z,77.82
2022-09-23T21:28:53.050Z,77.67
2022-09-23T21:30:52.161Z,77.74
2022-09-23T21:32:50.429Z,77.56
2022-09-23T21:34:49.238Z,78.09
2022-09-23T21:36:49.083Z,78.60
2022-09-23T21:38:47.316Z,79.24
2022-09-23T21:40:56.792Z,79.89
2022-09-23T21:42:59.305Z,79.89
2022-09-23T21:44:59.506Z,79.78
2022-09-23T21:47:00.578Z,79.89
2022-09-23T21:48:58.817Z,79.76
2022-09-23T21:50:58.915Z,79.67
2022-09-23T21:52:57.264Z,79.39
2022-09-23T21:54:55.465Z,78.68
2022-09-23T21:56:54.440Z,78.56
2022-09-23T21:58:55.177Z,78.64
2022-09-23T22:00:53.302Z,79.00
2022-09-23T22:02:53.432Z,79.51
2022-09-23T22:04:51.565Z,79.42
2022-09-23T22:06:49.889Z,79.83
2022-09-23T22:08:49.654Z,79.55
2022-09-23T22:10:47.914Z,79.81
2022-09-23T22:12:49.015Z,79.47
2022-09-23T22:14:49.082Z,79.22
2022-09-23T22:16:47.746Z,79.49
2022-09-23T22:18:46.096Z,79.30
2022-09-23T22:20:44.350Z,79.67
2022-09-23T22:22:42.553Z,80.43
2022-09-23T22:24:44.810Z,80.95
2022-09-23T22:26:45.073Z,81.19
2022-09-23T22:29:00.419Z,81.01
2022-09-23T22:31:18.250Z,81.48
2022-09-23T22:33:16.796Z,81.86
2022-09-23T22:35:17.860Z,81.47
2022-09-23T22:37:17.966Z,81.38
2022-09-23T22:39:16.314Z,81.00
2022-09-23T22:41:15.263Z,81.13
2022-09-23T22:43:14.115Z,80.84
2022-09-23T22:45:13.276Z,81.04
2022-09-23T22:47:13.138Z,81.77
2022-09-23T22:49:12.372Z,82.00
2022-09-23T22:51:12.515Z,82.00
2022-09-23T22:53:11.110Z,82.61
2022-09-23T22:55:10.173Z,82.25
2022-09-23T22:57:09.624Z,82.24
2022-09-23T22:59:09.337Z,82.25
2022-09-23T23:01:07.550Z,82.63
2022-09-23T23:03:07.574Z,81.82
2022-09-23T23:05:06.752Z,82.08
2022-09-23T23:07:07.018Z,82.32
2022-09-23T23:09:08.119Z,81.76
2022-09-23T23:11:10.196Z,82.19
2022-09-23T23:13:08.434Z,82.50
2022-09-23T23:15:07.634Z,82.53
2022-09-23T23:17:08.607Z,82.74
2022-09-23T23:19:13.688Z,83.20
2022-09-23T23:21:13.667Z,82.95
2022-09-23T23:23:11.781Z,82.63
2022-09-23T23:25:10.769Z,83.15
2022-09-23T23:27:09.090Z,82.69
2022-09-23T23:29:07.475Z,83.00
2022-09-23T23:31:06.398Z,83.01
2022-09-23T23:33:04.756Z,83.75
2022-09-23T23:35:04.888Z,83.74
2022-09-23T23:37:03.243Z,83.82
2022-09-23T23:39:01.427Z,84.51
2022-09-23T23:41:03.275Z,84.38
2022-09-23T23:43:02.186Z,83.94
2022-09-23T23:45:00.251Z,83.95
2022-09-23T23:46:58.588Z,83.74
2022-09-23T23:48:58.225Z,83.67
2022-09-23T23:50:59.941Z,83.57
2022-09-23T23:52:59.474Z,84.07
2022-09-23T23:54:57.741Z,84.17
2022-09-23T23:56:55.842Z,84.63
2022-09-23T23:58:57.540Z,84.23
